Time;durP1;ratioP1;P1;durP2;ratioP2;P2;SDS_P1;SDS_P2;PMS_P1;PMS_P2;Temp;Humidity;BMP_temperature;BMP_pressure;BME280_temperature;BME280_humidity;BME280_pressure;Samples;Min_cycle;Max_cycle;Signal;HPM_P1;HPM_P2
2023/06/03 00:02:23;;;;;;;;;;;;;;;30.50;31.95;93969.22;5032940;28;7124;-57
2023/06/03 00:05:04;;;;;;;;;;;;;;;30.51;31.74;93971.44;5018281;28;9125;-57
2023/06/03 00:07:37;;;;;;;;;;;;;;;30.49;30.90;93974.03;5004388;28;7012;-57
2023/06/03 00:10:08;;;;;;;;;;;;;;;30.48;31.62;93978.13;5020455;28;7253;-56
2023/06/03 00:13:01;;;;;;;;;;;;;;;30.50;31.19;93980.31;5038075;28;8700;-56
2023/06/03 00:16:07;;;;;;;;;;;;;;;30.48;31.04;93983.66;4957308;28;7026;-56
2023/06/03 00:18:53;;;;;;;;;;;;;;;30.46;31.48;93975.16;4961455;28;9482;-56
2023/06/03 00:21:19;;;;;;;;;;;;;;;30.47;30.97;93978.69;4986964;28;8686;-56
2023/06/03 00:24:01;;;;;;;;;;;;;;;30.47;31.11;93987.72;4959182;28;9017;-57
2023/06/03 00:26:37;;;;;;;;;;;;;;;30.46;31.51;93988.28;4994574;28;7023;-56
2023/06/03 00:29:22;;;;;;;;;;;;;;;30.46;31.64;93993.84;4964318;28;9229;-57
2023/06/03 00:31:49;;;;;;;;;;;;;;;30.45;31.43;93995.13;4952773;28;8599;-56
2023/06/03 00:34:24;;;;;;;;;;;;;;;30.45;30.74;94000.66;4974564;28;7463;-56
2023/06/03 00:36:55;;;;;;;;;;;;;;;30.44;31.22;93993.66;4961897;28;7056;-57
2023/06/03 00:39:22;;;;;;;;;;;;;;;30.45;31.32;93995.88;4955385;28;8772;-56
2023/06/03 00:41:50;;;;;;;;;;;;;;;30.44;30.56;93994.41;4971240;28;9039;-56
2023/06/03 00:44:16;;;;;;;;;;;;;;;30.43;31.38;93995.69;4963415;28;9408;-56
2023/06/03 00:46:55;;;;;;;;;;;;;;;30.43;30.85;94004.00;4962261;28;9048;-56
2023/06/03 00:49:55;;;;;;;;;;;;;;;30.42;30.45;93996.25;4972681;28;8333;-57
2023/06/03 00:52:33;;;;;;;;;;;;;;;30.41;31.33;93989.19;4982173;28;9099;-56
2023/06/03 00:55:31;;;;;;;;;;;;;;;30.42;30.42;93991.44;5031361;28;7056;-56
2023/06/03 00:58:11;;;;;;;;;;;;;;;30.39;30.62;93991.78;5016655;28;7129;-56
2023/06/03 01:00:48;;;;;;;;;;;;;;;30.39;30.19;93997.31;5037851;28;7297;-56
2023/06/03 01:03:19;;;;;;;;;;;;;;;30.37;31.02;94002.69;5016554;28;9054;-56
2023/06/03 01:06:24;;;;;;;;;;;;;;;30.35;30.44;94002.50;5031450;28;9442;-56
2023/06/03 01:09:02;;;;;;;;;;;;;;;30.36;31.12;94004.72;4939296;28;9516;-56
2023/06/03 01:11:34;;;;;;;;;;;;;;;30.34;30.74;94001.75;4934344;28;7332;-56
2023/06/03 01:14:27;;;;;;;;;;;;;;;30.35;30.86;93996.97;4964454;28;8223;-56
2023/06/03 01:17:10;;;;;;;;;;;;;;;30.34;31.26;94001.75;4888230;29;8738;-56
2023/06/03 01:20:10;;;;;;;;;;;;;;;30.33;31.25;94003.06;4882196;29;7027;-57
2023/06/03 01:22:41;;;;;;;;;;;;;;;30.32;30.69;94003.63;4854360;29;7459;-57
2023/06/03 01:25:29;;;;;;;;;;;;;;;30.31;30.45;94002.13;4863560;29;8738;-56
2023/06/03 01:28:06;;;;;;;;;;;;;;;30.29;31.29;93996.38;4856106;29;7247;-56
2023/06/03 01:31:01;;;;;;;;;;;;;;;30.29;30.29;94002.66;4872953;29;7132;-56
2023/06/03 01:33:42;;;;;;;;;;;;;;;30.29;30.30;93996.38;4861255;29;8726;-56
2023/06/03 01:36:29;;;;;;;;;;;;;;;30.29;30.57;93990.81;4884160;29;9367;-57
2023/06/03 01:39:12;;;;;;;;;;;;;;;30.25;30.50;93996.75;4856378;29;9063;-56
2023/06/03 01:41:42;;;;;;;;;;;;;;;30.22;30.71;93991.53;4857255;29;7109;-56
2023/06/03 01:44:08;;;;;;;;;;;;;;;30.18;30.96;93994.69;4878789;29;7236;-57
2023/06/03 01:46:35;;;;;;;;;;;;;;;30.14;31.18;93988.75;4884164;29;7232;-57
2023/06/03 01:49:10;;;;;;;;;;;;;;;30.13;30.94;93998.34;4910571;29;9125;-56
2023/06/03 01:51:50;;;;;;;;;;;;;;;30.11;31.27;93995.41;4919068;29;8946;-56
2023/06/03 01:54:45;;;;;;;;;;;;;;;30.11;30.51;94000.19;4950546;28;7035;-56
2023/06/03 01:57:30;;;;;;;;;;;;;;;30.07;30.63;93994.28;4976311;28;7411;-56
2023/06/03 02:00:26;;;;;;;;;;;;;;;30.07;31.01;94002.59;5019309;28;7129;-57
2023/06/03 02:02:55;;;;;;;;;;;;;;;30.05;30.55;94000.38;4950124;28;7033;-56
2023/06/03 02:05:21;;;;;;;;;;;;;;;30.05;31.22;93999.63;4950062;28;7374;-56
2023/06/03 02:07:51;;;;;;;;;;;;;;;30.00;30.82;93995.72;4953997;28;7037;-56
2023/06/03 02:10:20;;;;;;;;;;;;;;;30.03;31.29;94005.72;4934212;29;7045;-56
2023/06/03 02:12:56;;;;;;;;;;;;;;;29.99;31.26;94002.56;4951514;28;8890;-56
2023/06/03 02:15:38;;;;;;;;;;;;;;;29.99;30.83;94002.56;4936288;29;7616;-56
2023/06/03 02:18:42;;;;;;;;;;;;;;;29.99;30.75;94005.34;4936706;29;8865;-57
2023/06/03 02:21:28;;;;;;;;;;;;;;;29.95;31.47;93995.91;4952591;28;8753;-57
2023/06/03 02:24:05;;;;;;;;;;;;;;;29.97;31.24;94004.41;4933100;29;9129;-57
2023/06/03 02:26:52;;;;;;;;;;;;;;;29.97;31.96;93996.81;4939686;29;9085;-56
2023/06/03 02:29:22;;;;;;;;;;;;;;;29.97;30.69;94001.63;4927098;29;7106;-57
2023/06/03 02:32:04;;;;;;;;;;;;;;;29.95;31.20;94004.94;4934052;29;9644;-56
2023/06/03 02:34:51;;;;;;;;;;;;;;;29.95;31.88;94010.50;4939075;28;7021;-56
2023/06/03 02:37:17;;;;;;;;;;;;;;;29.94;31.86;94011.78;4940174;29;7209;-57
2023/06/03 02:39:44;;;;;;;;;;;;;;;29.95;31.04;94018.09;5002242;28;7263;-57
2023/06/03 02:42:46;;;;;;;;;;;;;;;29.95;30.63;94009.78;5025839;28;8961;-56
2023/06/03 02:45:25;;;;;;;;;;;;;;;29.92;30.68;94013.63;5012773;28;7742;-56
2023/06/03 02:47:59;;;;;;;;;;;;;;;29.91;31.59;94014.91;5002560;28;8105;-56
2023/06/03 02:50:30;;;;;;;;;;;;;;;29.90;31.57;94014.19;4999756;28;9073;-56
2023/06/03 02:53:27;;;;;;;;;;;;;;;29.89;31.35;94023.03;5009332;28;7311;-56
2023/06/03 02:56:04;;;;;;;;;;;;;;;29.87;31.05;94023.59;4936479;29;7250;-56
2023/06/03 02:58:31;;;;;;;;;;;;;;;29.86;30.71;94019.34;4957492;28;8597;-56
2023/06/03 03:01:02;;;;;;;;;;;;;;;29.88;31.82;94025.09;4959217;28;9140;-56
2023/06/03 03:04:09;;;;;;;;;;;;;;;29.88;31.33;94027.84;4929597;29;9035;-56
2023/06/03 03:06:49;;;;;;;;;;;;;;;29.86;31.37;94018.59;4955300;28;7252;-56
2023/06/03 03:09:30;;;;;;;;;;;;;;;29.86;30.99;94030.44;4938744;28;7268;-56
2023/06/03 03:11:58;;;;;;;;;;;;;;;29.86;31.83;94024.16;4948103;28;8214;-56
2023/06/03 03:15:03;;;;;;;;;;;;;;;29.85;30.95;94022.66;4954551;28;9483;-56
2023/06/03 03:17:47;;;;;;;;;;;;;;;29.83;30.78;94025.22;4908594;29;7056;-56
2023/06/03 03:20:14;;;;;;;;;;;;;;;29.83;31.89;94019.69;4899533;29;8724;-57
2023/06/03 03:22:51;;;;;;;;;;;;;;;29.82;30.83;94024.47;4925507;29;7239;-57
2023/06/03 03:25:41;;;;;;;;;;;;;;;29.82;30.85;94023.75;4898116;29;9582;-56
2023/06/03 03:28:16;;;;;;;;;;;;;;;29.81;30.97;94023.00;4931510;29;7594;-56
2023/06/03 03:30:53;;;;;;;;;;;;;;;29.80;31.35;94013.19;4928991;29;9074;-56
2023/06/03 03:33:40;;;;;;;;;;;;;;;29.79;31.79;94018.03;4983897;28;9090;-56
2023/06/03 03:36:20;;;;;;;;;;;;;;;29.79;31.37;94025.59;4977436;28;7264;-57
2023/06/03 03:38:46;;;;;;;;;;;;;;;29.78;31.81;94024.09;4940346;28;9430;-57
2023/06/03 03:41:26;;;;;;;;;;;;;;;29.79;31.45;94025.59;4963938;28;9055;-56
2023/06/03 03:44:31;;;;;;;;;;;;;;;29.83;30.68;94025.97;4956272;28;7227;-56
2023/06/03 03:47:07;;;;;;;;;;;;;;;29.84;31.80;94023.97;4908159;29;7214;-57
2023/06/03 03:50:25;;;;;;;;;;;;;;;29.85;31.51;94033.75;4946414;28;6876;-56
2023/06/03 03:52:51;;;;;;;;;;;;;;;29.85;31.43;94028.94;4937658;28;7070;-56
2023/06/03 03:55:17;;;;;;;;;;;;;;;29.86;31.28;94032.47;4935312;28;7208;-56
2023/06/03 03:57:45;;;;;;;;;;;;;;;29.86;30.92;94030.44;4934428;28;9698;-56
2023/06/03 04:00:12;;;;;;;;;;;;;;;29.87;31.02;94028.38;4948496;28;9173;-57
2023/06/03 04:02:41;;;;;;;;;;;;;;;29.88;30.92;94027.13;4935616;28;7322;-56
2023/06/03 04:05:16;;;;;;;;;;;;;;;29.85;30.76;94028.19;4941648;28;9044;-56
2023/06/03 04:12:06;;;;;;;;;;;;;;;29.86;31.49;94021.38;4945305;28;7144;-57
2023/06/03 04:14:57;;;;;;;;;;;;;;;29.86;31.29;94024.91;4939589;28;7031;-57
2023/06/03 04:17:54;;;;;;;;;;;;;;;29.84;30.44;94024.66;4918353;29;7159;-57
2023/06/03 04:20:44;;;;;;;;;;;;;;;29.84;30.69;94038.53;4912283;29;8639;-57
2023/06/03 04:23:28;;;;;;;;;;;;;;;29.84;31.40;94029.50;4919878;29;9207;-56
2023/06/03 04:26:20;;;;;;;;;;;;;;;29.83;31.19;94037.06;4917802;28;7058;-56
2023/06/03 04:29:02;;;;;;;;;;;;;;;29.82;31.53;94038.34;4934107;29;7275;-56
2023/06/03 04:31:31;;;;;;;;;;;;;;;29.82;32.14;94027.25;4928606;29;9074;-57
2023/06/03 04:34:08;;;;;;;;;;;;;;;29.85;32.73;94028.19;4934700;29;9356;-57
2023/06/03 04:36:35;;;;;;;;;;;;;;;29.86;33.24;94029.69;4918933;29;7032;-56
2023/06/03 04:39:17;;;;;;;;;;;;;;;29.85;32.16;94039.28;4924625;29;8700;-57
2023/06/03 04:42:02;;;;;;;;;;;;;;;29.86;32.63;94030.44;4926878;29;9021;-56
2023/06/03 04:44:28;;;;;;;;;;;;;;;29.87;32.39;94031.16;4940158;28;9721;-57
2023/06/03 04:47:43;;;;;;;;;;;;;;;29.89;33.13;94032.09;4948310;28;7676;-56
2023/06/03 04:50:43;;;;;;;;;;;;;;;29.90;32.73;94035.63;4929519;29;8276;-57
2023/06/03 04:53:25;;;;;;;;;;;;;;;29.89;32.53;94025.81;4882454;29;7876;-56
2023/06/03 04:56:19;;;;;;;;;;;;;;;29.91;31.92;94028.78;4900576;29;7419;-57
2023/06/03 04:58:45;;;;;;;;;;;;;;;29.88;32.17;94033.41;4903393;29;7823;-56
2023/06/03 05:01:12;;;;;;;;;;;;;;;29.86;32.45;94033.22;4857174;29;8610;-57
2023/06/03 05:03:38;;;;;;;;;;;;;;;29.84;31.67;94030.22;4879576;29;7209;-56
2023/06/03 05:06:10;;;;;;;;;;;;;;;29.84;32.41;94040.59;4879210;29;6982;-56
2023/06/03 05:08:38;;;;;;;;;;;;;;;29.83;32.20;94039.84;4892653;29;7095;-56
2023/06/03 05:11:43;;;;;;;;;;;;;;;29.83;31.84;94037.06;4880456;29;8751;-57
2023/06/03 05:14:18;;;;;;;;;;;;;;;29.81;31.67;94034.09;4893282;29;9402;-56
2023/06/03 05:16:46;;;;;;;;;;;;;;;29.78;31.27;94035.19;4881709;29;8989;-56
2023/06/03 05:19:16;;;;;;;;;;;;;;;29.80;31.71;94038.16;4893619;29;9386;-56
2023/06/03 05:21:58;;;;;;;;;;;;;;;29.80;31.24;94032.59;4891466;29;7035;-56
2023/06/03 05:24:26;;;;;;;;;;;;;;;29.78;31.21;94024.09;4889787;29;7536;-57
2023/06/03 05:26:54;;;;;;;;;;;;;;;29.80;31.32;94038.16;4898208;29;9624;-56
2023/06/03 05:29:20;;;;;;;;;;;;;;;29.77;31.34;94034.47;4950534;28;8694;-57
2023/06/03 05:31:46;;;;;;;;;;;;;;;29.79;30.87;94037.44;5006750;28;7291;-57
2023/06/03 05:34:14;;;;;;;;;;;;;;;29.77;31.14;94033.72;5010729;28;6992;-56
2023/06/03 05:36:46;;;;;;;;;;;;;;;29.76;31.69;94027.44;5024808;28;8737;-56
2023/06/03 05:39:23;;;;;;;;;;;;;;;29.76;31.54;94038.50;5027343;28;9162;-57
2023/06/03 05:41:49;;;;;;;;;;;;;;;29.76;32.09;94037.78;5020957;28;8786;-57
2023/06/03 05:44:47;;;;;;;;;;;;;;;29.76;31.50;94035.00;5015429;28;7081;-56
2023/06/03 05:47:25;;;;;;;;;;;;;;;29.76;31.30;94038.50;5032396;28;7031;-57
2023/06/03 05:49:56;;;;;;;;;;;;;;;29.77;31.12;94036.50;5013468;28;7249;-57
2023/06/03 05:52:22;;;;;;;;;;;;;;;29.75;32.29;94030.75;5020458;28;8692;-57
2023/06/03 05:55:16;;;;;;;;;;;;;;;29.74;31.06;94032.03;5013813;28;7042;-57
2023/06/03 05:58:01;;;;;;;;;;;;;;;29.73;31.99;94033.31;5021347;28;7437;-57
2023/06/03 06:00:37;;;;;;;;;;;;;;;29.72;31.88;94031.81;5046493;28;7271;-57
2023/06/03 06:03:17;;;;;;;;;;;;;;;29.73;31.48;94045.13;5023223;28;7237;-57
2023/06/03 06:05:56;;;;;;;;;;;;;;;29.69;31.38;94041.97;5015115;28;8922;-56
2023/06/03 06:08:25;;;;;;;;;;;;;;;29.72;31.22;94048.44;5008475;28;9307;-57
2023/06/03 06:11:08;;;;;;;;;;;;;;;29.74;31.41;94043.13;5023922;28;7470;-57
2023/06/03 06:13:47;;;;;;;;;;;;;;;29.74;32.10;94034.81;5026085;28;7219;-57
2023/06/03 06:16:14;;;;;;;;;;;;;;;29.76;32.04;94046.09;5013260;28;7013;-57
2023/06/03 06:18:45;;;;;;;;;;;;;;;29.76;32.58;94040.53;5013510;28;7528;-57
2023/06/03 06:21:18;;;;;;;;;;;;;;;29.76;32.32;94046.84;5021327;28;7103;-57
2023/06/03 06:23:44;;;;;;;;;;;;;;;29.74;31.80;94045.88;5013503;28;7244;-57
2023/06/03 06:26:16;;;;;;;;;;;;;;;29.70;32.40;94040.69;5006129;28;9095;-57
2023/06/03 06:28:45;;;;;;;;;;;;;;;29.76;32.24;94051.63;5015595;28;7003;-57
2023/06/03 06:31:14;;;;;;;;;;;;;;;29.75;32.00;94052.94;5001071;28;9011;-57
2023/06/03 06:33:47;;;;;;;;;;;;;;;29.72;32.56;94042.91;5023053;28;7227;-57
2023/06/03 06:36:32;;;;;;;;;;;;;;;29.73;31.58;94050.66;5013172;28;7043;-57
2023/06/03 06:38:58;;;;;;;;;;;;;;;29.74;32.17;94052.19;5006844;28;8613;-57
2023/06/03 06:41:27;;;;;;;;;;;;;;;29.70;31.73;94056.56;5009621;28;7241;-57
2023/06/03 06:43:58;;;;;;;;;;;;;;;29.71;31.95;94052.50;4995596;28;9383;-57
2023/06/03 06:46:32;;;;;;;;;;;;;;;29.72;32.16;94046.41;5015848;28;7298;-57
2023/06/03 06:49:11;;;;;;;;;;;;;;;29.71;32.77;94047.69;5011098;28;9116;-57
2023/06/03 06:51:40;;;;;;;;;;;;;;;29.74;32.73;94056.97;5039869;28;9071;-57
2023/06/03 06:54:10;;;;;;;;;;;;;;;29.74;32.12;94051.44;5007837;28;10340;-57
2023/06/03 06:56:38;;;;;;;;;;;;;;;29.69;32.09;94050.28;5030433;28;9070;-57
2023/06/03 06:59:04;;;;;;;;;;;;;;;29.71;31.93;94050.47;5021564;28;9134;-56
2023/06/03 07:01:35;;;;;;;;;;;;;;;29.74;32.70;94045.88;5008290;28;8995;-56
2023/06/03 07:04:01;;;;;;;;;;;;;;;29.73;32.75;94052.72;5021765;28;7059;-56
2023/06/03 07:06:27;;;;;;;;;;;;;;;29.74;31.94;94062.53;5006687;28;9001;-56
2023/06/03 07:08:53;;;;;;;;;;;;;;;29.76;32.59;94060.69;5024059;28;8215;-56
2023/06/03 07:11:22;;;;;;;;;;;;;;;29.78;33.02;94060.13;5020935;28;7076;-56
2023/06/03 07:13:51;;;;;;;;;;;;;;;29.77;32.94;94062.19;5025479;28;9401;-56
2023/06/03 07:16:19;;;;;;;;;;;;;;;29.76;32.75;94057.91;5024336;28;9799;-56
2023/06/03 07:18:45;;;;;;;;;;;;;;;29.77;33.10;94062.19;5003509;28;7451;-57
2023/06/03 07:21:15;;;;;;;;;;;;;;;29.78;32.68;94058.13;5032235;28;7259;-56
2023/06/03 07:23:49;;;;;;;;;;;;;;;29.79;32.93;94061.63;5009506;28;7291;-56
2023/06/03 07:26:15;;;;;;;;;;;;;;;29.80;32.87;94063.09;5012956;28;9100;-56
2023/06/03 07:29:13;;;;;;;;;;;;;;;29.82;33.68;94062.56;5010194;28;7265;-57
2023/06/03 07:32:00;;;;;;;;;;;;;;;29.83;34.40;94064.78;4950120;28;9051;-56
2023/06/03 07:34:39;;;;;;;;;;;;;;;29.82;34.11;94070.91;4932310;28;7822;-57
2023/06/03 07:37:12;;;;;;;;;;;;;;;29.83;33.30;94066.81;4951423;28;8743;-57
2023/06/03 07:39:59;;;;;;;;;;;;;;;29.77;33.41;94062.19;4933457;28;7007;-56
2023/06/03 07:42:56;;;;;;;;;;;;;;;29.82;33.99;94068.84;4949267;28;7997;-57
2023/06/03 07:45:53;;;;;;;;;;;;;;;29.82;33.33;94071.63;4949098;28;7144;-56
2023/06/03 07:48:36;;;;;;;;;;;;;;;29.83;34.22;94075.13;4931399;29;9000;-56
2023/06/03 07:51:05;;;;;;;;;;;;;;;29.79;34.31;94067.94;4914868;29;7113;-57
2023/06/03 07:53:36;;;;;;;;;;;;;;;29.82;34.18;94063.28;4932205;28;7398;-56
2023/06/03 07:56:10;;;;;;;;;;;;;;;29.83;33.37;94070.34;4927634;29;7263;-56
2023/06/03 07:58:37;;;;;;;;;;;;;;;29.84;33.18;94073.88;4925791;29;8233;-56
2023/06/03 08:01:03;;;;;;;;;;;;;;;29.85;33.91;94078.84;4927033;29;9919;-56
2023/06/03 08:03:30;;;;;;;;;;;;;;;29.85;34.03;94078.09;4910103;29;8663;-56
2023/06/03 08:05:56;;;;;;;;;;;;;;;29.85;34.36;94081.63;4910054;29;7453;-56
2023/06/03 08:08:31;;;;;;;;;;;;;;;29.84;34.22;94076.63;4945435;28;7132;-56
2023/06/03 08:11:01;;;;;;;;;;;;;;;29.85;34.99;94080.88;4970423;28;9043;-56
2023/06/03 08:13:29;;;;;;;;;;;;;;;29.88;34.79;94082.56;4982035;28;8768;-57
2023/06/03 08:15:58;;;;;;;;;;;;;;;29.85;33.99;94089.94;4982769;28;9038;-57
2023/06/03 08:18:54;;;;;;;;;;;;;;;29.84;34.35;94082.19;4964927;28;7038;-56
2023/06/03 08:21:30;;;;;;;;;;;;;;;29.87;34.37;94092.91;4976921;28;9511;-56
2023/06/03 08:23:56;;;;;;;;;;;;;;;29.87;34.05;94097.72;4988432;28;9066;-57
2023/06/03 08:26:22;;;;;;;;;;;;;;;29.87;35.03;94090.13;5028219;28;9415;-57
2023/06/03 08:28:54;;;;;;;;;;;;;;;29.91;34.66;94098.09;5042650;28;9458;-57
2023/06/03 08:31:25;;;;;;;;;;;;;;;29.91;34.96;94087.75;5008145;28;8635;-57
2023/06/03 08:33:55;;;;;;;;;;;;;;;29.93;34.31;94090.72;5005678;28;9208;-57
2023/06/03 08:36:28;;;;;;;;;;;;;;;29.92;34.37;94094.78;5002620;28;7380;-57
2023/06/03 08:39:09;;;;;;;;;;;;;;;29.94;34.82;94092.22;4997777;28;9024;-57
2023/06/03 08:41:59;;;;;;;;;;;;;;;29.93;35.48;94087.22;5007327;28;7006;-56
2023/06/03 08:44:53;;;;;;;;;;;;;;;29.95;34.83;94092.97;5030519;28;7355;-57
2023/06/03 08:47:58;;;;;;;;;;;;;;;29.96;35.56;94091.66;5022216;28;7117;-57
2023/06/03 08:50:35;;;;;;;;;;;;;;;29.95;35.39;94092.97;5026024;28;8779;-57
2023/06/03 08:53:11;;;;;;;;;;;;;;;29.95;35.67;94093.69;5015438;28;8706;-57
2023/06/03 08:55:43;;;;;;;;;;;;;;;29.96;35.31;94094.44;5017012;28;9140;-56
2023/06/03 08:58:31;;;;;;;;;;;;;;;29.96;35.01;94092.41;5005939;28;7160;-56
2023/06/03 09:01:02;;;;;;;;;;;;;;;29.96;35.17;94094.44;5013305;28;7047;-56
2023/06/03 09:03:48;;;;;;;;;;;;;;;29.96;35.11;94089.63;5018215;28;7417;-57
2023/06/03 09:06:16;;;;;;;;;;;;;;;29.95;34.98;94093.69;5025359;28;7255;-57
2023/06/03 09:09:11;;;;;;;;;;;;;;;29.97;34.50;94085.56;5016858;28;7389;-56
2023/06/03 09:11:52;;;;;;;;;;;;;;;29.98;35.19;94091.84;4919134;29;7160;-56
2023/06/03 09:14:46;;;;;;;;;;;;;;;29.97;35.42;94088.34;4932610;29;7364;-56
2023/06/03 09:17:15;;;;;;;;;;;;;;;29.97;35.51;94090.38;4914848;29;7886;-57
2023/06/03 09:19:41;;;;;;;;;;;;;;;29.97;35.95;94091.09;4928369;28;9330;-57
2023/06/03 09:22:19;;;;;;;;;;;;;;;29.96;35.02;94097.19;4926960;29;7204;-57
2023/06/03 09:24:45;;;;;;;;;;;;;;;29.96;35.76;94092.41;4922648;29;7111;-57
2023/06/03 09:27:11;;;;;;;;;;;;;;;29.97;35.41;94090.38;4932114;29;7039;-56
2023/06/03 09:29:46;;;;;;;;;;;;;;;29.97;35.93;94090.38;4932264;29;7225;-57
2023/06/03 09:32:14;;;;;;;;;;;;;;;29.97;35.14;94093.16;4940450;28;9366;-56
2023/06/03 09:35:19;;;;;;;;;;;;;;;29.97;35.82;94096.66;4917760;29;7157;-57
2023/06/03 09:38:04;;;;;;;;;;;;;;;29.96;35.81;94097.19;4911216;29;7364;-57
2023/06/03 09:40:35;;;;;;;;;;;;;;;29.97;35.18;94091.09;4918119;29;6856;-57
2023/06/03 09:43:13;;;;;;;;;;;;;;;29.97;35.25;94085.56;4912712;29;7252;-57
2023/06/03 09:46:09;;;;;;;;;;;;;;;29.97;35.39;94084.84;4917865;29;7051;-57
2023/06/03 09:48:48;;;;;;;;;;;;;;;29.99;35.20;94090.56;4965439;28;7091;-57
2023/06/03 09:52:07;;;;;;;;;;;;;;;30.00;35.28;94098.34;5019914;28;7218;-57
2023/06/03 09:55:01;;;;;;;;;;;;;;;30.00;35.07;94097.59;5023231;28;7447;-57
2023/06/03 09:57:26;;;;;;;;;;;;;;;29.99;36.22;94085.78;5029516;28;8242;-56
2023/06/03 10:00:14;;;;;;;;;;;;;;;30.03;36.32;94090.97;5021294;28;9400;-57
2023/06/03 10:03:06;;;;;;;;;;;;;;;30.00;35.97;94089.28;5006910;28;7041;-56
2023/06/03 10:05:52;;;;;;;;;;;;;;;30.04;36.25;94095.19;5007454;28;7320;-57
2023/06/03 10:08:31;;;;;;;;;;;;;;;30.05;35.36;94091.91;5007250;28;8799;-55
2023/06/03 10:11:02;;;;;;;;;;;;;;;30.06;35.50;94087.81;5003547;28;9065;-55
2023/06/03 10:13:40;;;;;;;;;;;;;;;30.06;35.85;94092.66;5031449;28;9143;-55
2023/06/03 10:16:27;;;;;;;;;;;;;;;30.09;36.12;94083.97;5041708;28;7295;-54
2023/06/03 10:19:03;;;;;;;;;;;;;;;30.10;36.15;94087.50;5005879;28;8761;-55
2023/06/03 10:22:17;;;;;;;;;;;;;;;30.10;35.67;94082.66;5030483;28;7385;-55
2023/06/03 10:25:17;;;;;;;;;;;;;;;30.11;36.14;94086.19;5032905;28;7022;-55
2023/06/03 10:27:49;;;;;;;;;;;;;;;30.11;35.98;94081.38;5029348;28;7089;-55
2023/06/03 10:30:31;;;;;;;;;;;;;;;30.12;36.38;94073.81;5016087;28;7180;-55
2023/06/03 10:33:18;;;;;;;;;;;;;;;30.13;36.09;94075.28;5016362;28;7279;-55
2023/06/03 10:35:57;;;;;;;;;;;;;;;30.14;35.86;94066.44;5010449;28;10001;-55
2023/06/03 10:38:39;;;;;;;;;;;;;;;30.14;36.16;94066.44;5029369;28;9068;-55
2023/06/03 10:41:07;;;;;;;;;;;;;;;30.14;35.43;94071.22;5023784;28;7300;-55
2023/06/03 10:43:43;;;;;;;;;;;;;;;30.13;35.85;94070.47;5022780;28;8794;-55
2023/06/03 10:46:12;;;;;;;;;;;;;;;30.16;35.81;94068.66;5015843;28;7032;-55
2023/06/03 10:48:51;;;;;;;;;;;;;;;30.18;35.85;94066.06;5032977;28;7132;-55
2023/06/03 10:55:32;;;;;;;;;;;;;;;30.20;36.36;94061.44;5028767;28;7253;-55
2023/06/03 10:58:19;;;;;;;;;;;;;;;30.21;35.93;94064.97;5015789;28;9053;-54
2023/06/03 11:01:12;;;;;;;;;;;;;;;30.20;35.66;94064.22;5020442;28;7269;-55
2023/06/03 11:04:14;;;;;;;;;;;;;;;30.22;36.45;94058.88;5009562;28;7039;-55
2023/06/03 11:07:00;;;;;;;;;;;;;;;30.23;35.56;94057.56;5031007;28;9423;-55
2023/06/03 11:09:51;;;;;;;;;;;;;;;30.22;36.52;94063.66;5016229;28;8938;-54
2023/06/03 11:12:18;;;;;;;;;;;;;;;30.25;36.16;94062.56;5009171;28;7339;-55
2023/06/03 11:14:48;;;;;;;;;;;;;;;30.26;36.01;94064.03;5018542;28;7119;-55
2023/06/03 11:17:18;;;;;;;;;;;;;;;30.24;36.07;94064.59;5034826;28;9314;-55
2023/06/03 11:20:09;;;;;;;;;;;;;;;30.28;35.63;94064.97;5013972;28;7289;-55
2023/06/03 11:22:56;;;;;;;;;;;;;;;30.27;36.84;94063.50;5014240;28;7331;-55
2023/06/03 11:25:26;;;;;;;;;;;;;;;30.28;36.22;94059.44;4998916;28;7267;-55
2023/06/03 11:27:52;;;;;;;;;;;;;;;30.29;36.21;94060.94;5023315;28;8819;-55
2023/06/03 11:30:21;;;;;;;;;;;;;;;30.30;35.76;94059.63;5015102;28;7068;-55
2023/06/03 11:33:07;;;;;;;;;;;;;;;30.31;36.49;94061.16;5027680;28;7493;-55
2023/06/03 11:35:38;;;;;;;;;;;;;;;30.32;35.87;94054.28;5003802;28;9106;-55
2023/06/03 11:38:16;;;;;;;;;;;;;;;30.33;35.72;94055.78;5010135;28;7249;-55
2023/06/03 11:40:49;;;;;;;;;;;;;;;30.35;36.26;94055.22;5029225;28;7023;-55
2023/06/03 11:43:16;;;;;;;;;;;;;;;30.36;36.77;94051.91;5017177;28;7021;-55
2023/06/03 11:45:43;;;;;;;;;;;;;;;30.37;37.01;94058.94;5028552;28;9273;-55
2023/06/03 11:48:11;;;;;;;;;;;;;;;30.38;36.00;94052.09;5006224;28;8209;-55
2023/06/03 11:50:57;;;;;;;;;;;;;;;30.40;36.67;94052.31;5020831;28;9323;-55
2023/06/03 11:53:36;;;;;;;;;;;;;;;30.41;36.47;94048.22;5037867;28;9438;-54
2023/06/03 11:56:03;;;;;;;;;;;;;;;30.41;36.17;94045.44;5003258;28;7265;-55
2023/06/03 11:59:00;;;;;;;;;;;;;;;30.44;35.83;94043.59;5010972;28;9141;-55
2023/06/03 12:01:35;;;;;;;;;;;;;;;30.44;36.21;94038.81;4993123;28;7043;-55
2023/06/03 12:04:10;;;;;;;;;;;;;;;30.44;36.46;94041.56;5010084;28;9132;-55
2023/06/03 12:06:56;;;;;;;;;;;;;;;30.47;35.53;94028.63;4994378;28;7225;-55
2023/06/03 12:09:26;;;;;;;;;;;;;;;30.46;36.26;94022.34;5008988;28;9574;-55
2023/06/03 12:12:19;;;;;;;;;;;;;;;30.49;35.74;94035.09;4992326;28;7084;-55
2023/06/03 12:15:31;;;;;;;;;;;;;;;30.50;36.45;94031.03;4989933;28;8600;-55
2023/06/03 12:18:10;;;;;;;;;;;;;;;30.52;36.74;94022.91;4986112;28;7229;-55
2023/06/03 12:20:38;;;;;;;;;;;;;;;30.51;36.19;94024.19;4968236;28;7727;-55
2023/06/03 12:23:09;;;;;;;;;;;;;;;30.51;36.66;94026.94;4976506;28;7284;-55
2023/06/03 12:25:36;;;;;;;;;;;;;;;30.51;36.37;94026.94;4969156;28;9313;-55
2023/06/03 12:28:28;;;;;;;;;;;;;;;30.54;36.30;94033.44;4987544;28;9094;-55
2023/06/03 12:31:11;;;;;;;;;;;;;;;30.53;36.23;94024.38;4972691;28;7259;-55
2023/06/03 12:34:11;;;;;;;;;;;;;;;30.54;36.58;94017.53;4965119;28;9072;-55
2023/06/03 12:36:46;;;;;;;;;;;;;;;30.56;35.49;94022.53;4946267;28;9469;-55
2023/06/03 12:39:12;;;;;;;;;;;;;;;30.56;35.47;94016.97;4929234;28;7049;-55
2023/06/03 12:41:50;;;;;;;;;;;;;;;30.57;35.65;94017.72;4931247;28;7134;-55
2023/06/03 12:44:17;;;;;;;;;;;;;;;30.58;35.69;94010.88;4929113;28;7203;-55
2023/06/03 12:46:43;;;;;;;;;;;;;;;30.57;35.80;94017.72;4945980;28;7133;-55
2023/06/03 12:49:34;;;;;;;;;;;;;;;30.60;35.13;94019.41;4950167;28;7008;-55
2023/06/03 12:52:17;;;;;;;;;;;;;;;30.62;35.26;94019.59;4934435;28;8278;-55
2023/06/03 12:54:55;;;;;;;;;;;;;;;30.62;35.57;94016.81;4949376;28;7048;-55
2023/06/03 12:57:48;;;;;;;;;;;;;;;30.65;36.02;94012.91;4950998;28;9586;-55
2023/06/03 13:00:58;;;;;;;;;;;;;;;30.66;34.78;94014.41;4949122;28;7594;-55
2023/06/03 13:03:33;;;;;;;;;;;;;;;30.67;34.30;94004.78;4949396;28;9099;-55
2023/06/03 13:06:16;;;;;;;;;;;;;;;30.68;34.98;94003.47;4948890;28;8001;-55
2023/06/03 13:08:52;;;;;;;;;;;;;;;30.71;35.61;94005.16;4932485;28;7014;-55
2023/06/03 13:11:53;;;;;;;;;;;;;;;30.71;35.66;93999.59;4970431;28;9061;-55
2023/06/03 13:14:31;;;;;;;;;;;;;;;30.70;34.58;94004.41;4966278;28;7241;-55
2023/06/03 13:17:06;;;;;;;;;;;;;;;30.73;35.23;94000.53;4966631;28;9420;-55
2023/06/03 13:19:49;;;;;;;;;;;;;;;30.76;34.60;94015.31;4954421;28;8482;-55
2023/06/03 13:23:06;;;;;;;;;;;;;;;30.75;34.41;94000.72;4953292;28;7665;-55
2023/06/03 13:25:45;;;;;;;;;;;;;;;30.76;34.49;93993.84;4880065;29;8943;-55
2023/06/03 13:28:21;;;;;;;;;;;;;;;30.77;34.60;94003.69;4894279;29;9462;-55
2023/06/03 13:31:00;;;;;;;;;;;;;;;30.77;34.89;93992.56;4895047;29;9063;-55
2023/06/03 13:33:49;;;;;;;;;;;;;;;30.78;34.35;93998.84;4895363;29;9095;-55
2023/06/03 13:36:26;;;;;;;;;;;;;;;30.81;34.63;93998.50;4884389;29;7466;-55
2023/06/03 13:38:58;;;;;;;;;;;;;;;30.82;34.58;93993.69;4888356;29;9382;-55
2023/06/03 13:41:25;;;;;;;;;;;;;;;30.82;34.60;94002.03;4883593;29;7011;-55
2023/06/03 13:44:00;;;;;;;;;;;;;;;30.82;35.10;93993.69;4889133;29;8243;-55
2023/06/03 13:46:30;;;;;;;;;;;;;;;30.82;34.32;94002.03;4889096;29;7208;-55
2023/06/03 13:48:56;;;;;;;;;;;;;;;30.85;34.43;93998.13;4890408;29;9588;-55
2023/06/03 13:51:23;;;;;;;;;;;;;;;30.86;34.19;94003.16;4925184;29;9806;-55
2023/06/03 13:53:51;;;;;;;;;;;;;;;30.88;34.44;93988.72;4939399;28;9444;-55
2023/06/03 13:56:17;;;;;;;;;;;;;;;30.91;34.54;93995.91;4907509;29;8708;-55
2023/06/03 13:58:56;;;;;;;;;;;;;;;30.92;33.91;93997.41;4945341;28;7264;-56
2023/06/03 14:01:43;;;;;;;;;;;;;;;30.94;34.53;93997.59;4982996;28;8940;-55
2023/06/03 14:04:26;;;;;;;;;;;;;;;30.94;33.81;93994.81;5032710;28;7191;-56
2023/06/03 14:06:54;;;;;;;;;;;;;;;30.94;34.32;93992.03;5013139;28;6994;-56